Time;durP1;ratioP1;P1;durP2;ratioP2;P2;SDS_P1;SDS_P2;PMS_P1;PMS_P2;Temp;Humidity;BMP_temperature;BMP_pressure;BME280_temperature;BME280_humidity;BME280_pressure;Samples;Min_cycle;Max_cycle;Signal;HPM_P1;HPM_P2
2022/10/23 00:01:18;;;;;;;;;;;10.00;99.90;;;;;;4977488;28;19925;-89
2022/10/23 00:03:44;;;;;;;;;;;10.60;99.90;;;;;;4993895;28;19932;-89
2022/10/23 00:06:13;;;;;;;;;;;10.20;99.90;;;;;;4994674;28;19926;-89
2022/10/23 00:08:39;;;;;;;;;;;10.00;99.90;;;;;;4994744;28;20271;-88
2022/10/23 00:11:05;;;;;;;;;;;10.00;99.90;;;;;;4978231;28;19929;-90
2022/10/23 00:13:31;;;;;;;;;;;10.30;99.90;;;;;;4978301;28;19926;-89
2022/10/23 00:15:59;;;;;;;;;;;10.00;99.90;;;;;;4994189;28;20278;-89
2022/10/23 00:18:25;;;;;;;;;;;10.00;99.90;;;;;;4994455;28;19933;-88
2022/10/23 00:20:53;;;;;;;;;;;10.00;99.90;;;;;;4977683;28;19926;-89
2022/10/23 00:23:21;;;;;;;;;;;10.10;99.90;;;;;;4978448;28;19933;-87
2022/10/23 00:25:49;;;;;;;;;;;10.10;99.90;;;;;;4977746;28;20400;-87
2022/10/23 00:28:14;;;;;;;;;;;10.00;99.90;;;;;;4978240;28;19932;-87
2022/10/23 00:30:42;;;;;;;;;;;9.90;99.90;;;;;;4977573;28;19925;-87
2022/10/23 00:33:10;;;;;;;;;;;10.20;99.90;;;;;;4977328;28;19976;-88
2022/10/23 00:35:39;;;;;;;;;;;10.10;99.90;;;;;;4974240;28;20401;-87
2022/10/23 00:38:05;;;;;;;;;;;10.00;99.90;;;;;;4961439;28;20370;-88
2022/10/23 00:40:31;;;;;;;;;;;10.00;99.90;;;;;;4983932;28;19926;-87
2022/10/23 00:42:56;;;;;;;;;;;10.00;99.90;;;;;;4970601;28;20286;-87
2022/10/23 00:45:26;;;;;;;;;;;10.00;99.90;;;;;;4977191;28;19988;-87
2022/10/23 00:47:53;;;;;;;;;;;10.00;99.90;;;;;;4977591;28;20021;-87
2022/10/23 00:50:23;;;;;;;;;;;10.20;99.90;;;;;;4977582;28;19934;-88
2022/10/23 00:52:50;;;;;;;;;;;10.00;99.90;;;;;;4977731;28;19926;-88
2022/10/23 00:55:20;;;;;;;;;;;9.90;99.90;;;;;;4974617;28;19929;-88
2022/10/23 00:57:47;;;;;;;;;;;11.00;99.90;;;;;;4974332;28;19930;-88
2022/10/23 01:00:20;;;;;;;;;;;10.10;99.90;;;;;;4978019;28;19994;-87
2022/10/23 01:02:45;;;;;;;;;;;9.90;99.90;;;;;;4995820;28;19941;-87
2022/10/23 01:05:11;;;;;;;;;;;9.90;99.90;;;;;;4982134;28;19926;-88
2022/10/23 01:08:00;;;;;;;;;;;10.00;99.90;;;;;;4977931;28;19925;-87
2022/10/23 01:10:33;;;;;;;;;;;9.90;99.90;;;;;;4971578;28;20008;-87
2022/10/23 01:13:03;;;;;;;;;;;9.90;99.90;;;;;;4971136;28;20392;-86
2022/10/23 01:15:40;;;;;;;;;;;9.90;99.90;;;;;;4978613;28;19926;-87
2022/10/23 01:18:21;;;;;;;;;;;9.90;99.90;;;;;;4977846;28;20297;-88
2022/10/23 01:21:07;;;;;;;;;;;9.90;99.90;;;;;;4993828;28;20297;-87
2022/10/23 01:23:48;;;;;;;;;;;9.70;99.90;;;;;;4976561;28;20005;-87
2022/10/23 01:26:33;;;;;;;;;;;10.00;99.90;;;;;;4993833;28;19926;-88
2022/10/23 01:28:59;;;;;;;;;;;9.90;99.90;;;;;;4978224;28;19984;-91
2022/10/23 01:31:29;;;;;;;;;;;10.00;99.90;;;;;;4976929;28;19961;-88
2022/10/23 01:33:59;;;;;;;;;;;8.20;99.90;;;;;;4975834;28;19933;-88
2022/10/23 01:36:26;;;;;;;;;;;10.10;99.90;;;;;;4976548;28;20390;-88
2022/10/23 01:38:57;;;;;;;;;;;9.90;99.90;;;;;;4989747;28;20322;-88
2022/10/23 01:41:28;;;;;;;;;;;10.00;99.90;;;;;;4993057;28;19926;-87
2022/10/23 01:43:57;;;;;;;;;;;9.90;99.90;;;;;;4969861;28;20345;-87
2022/10/23 01:46:24;;;;;;;;;;;9.00;99.90;;;;;;4976646;28;19926;-88
2022/10/23 01:48:51;;;;;;;;;;;10.20;99.90;;;;;;4971027;28;19925;-88
2022/10/23 01:51:18;;;;;;;;;;;9.90;99.90;;;;;;4976553;28;19926;-87
2022/10/23 01:53:46;;;;;;;;;;;9.90;99.90;;;;;;4976874;28;20108;-88
2022/10/23 01:56:14;;;;;;;;;;;9.90;99.90;;;;;;4992792;28;19933;-87
2022/10/23 01:58:43;;;;;;;;;;;8.80;99.90;;;;;;4976585;28;19933;-88
2022/10/23 02:01:09;;;;;;;;;;;9.90;99.90;;;;;;4975930;28;19930;-88
2022/10/23 02:03:36;;;;;;;;;;;10.10;99.90;;;;;;4992559;28;19926;-88
2022/10/23 02:06:01;;;;;;;;;;;10.10;99.90;;;;;;4975504;28;19969;-88
2022/10/23 02:08:27;;;;;;;;;;;9.90;99.90;;;;;;4976332;28;20024;-88
2022/10/23 02:11:08;;;;;;;;;;;10.20;99.90;;;;;;4976459;28;19937;-87
2022/10/23 02:13:38;;;;;;;;;;;9.90;99.90;;;;;;4990875;28;19925;-88
2022/10/23 02:16:22;;;;;;;;;;;9.80;99.90;;;;;;4974501;28;20283;-89
2022/10/23 02:18:59;;;;;;;;;;;9.90;99.90;;;;;;4971157;28;20379;-88
2022/10/23 02:21:54;;;;;;;;;;;9.90;99.90;;;;;;4992744;28;19926;-89
2022/10/23 02:24:22;;;;;;;;;;;9.80;99.90;;;;;;4988652;28;20271;-89
2022/10/23 02:26:53;;;;;;;;;;;9.80;99.90;;;;;;4976533;28;19933;-88
2022/10/23 02:29:23;;;;;;;;;;;9.80;99.90;;;;;;4975878;28;19944;-88
2022/10/23 02:31:48;;;;;;;;;;;9.90;99.90;;;;;;4989656;28;19929;-88
2022/10/23 02:34:14;;;;;;;;;;;9.80;99.90;;;;;;4958300;28;19977;-88
2022/10/23 02:36:39;;;;;;;;;;;9.80;99.90;;;;;;4991297;28;20350;-88
2022/10/23 02:39:05;;;;;;;;;;;9.80;99.90;;;;;;4975637;28;19926;-89
2022/10/23 02:41:46;;;;;;;;;;;9.80;99.90;;;;;;4959684;28;19930;-88
2022/10/23 02:44:23;;;;;;;;;;;9.80;99.90;;;;;;4973919;28;19926;-88
2022/10/23 02:46:58;;;;;;;;;;;9.90;99.90;;;;;;4977677;28;19926;-89
2022/10/23 02:49:30;;;;;;;;;;;9.80;99.90;;;;;;4979175;28;20032;-89
2022/10/23 02:52:10;;;;;;;;;;;9.90;99.90;;;;;;4979226;28;20353;-88
2022/10/23 02:54:55;;;;;;;;;;;9.90;99.90;;;;;;4996201;28;20009;-88
2022/10/23 02:57:23;;;;;;;;;;;9.90;99.90;;;;;;4987131;28;20444;-89
2022/10/23 03:00:10;;;;;;;;;;;9.90;99.90;;;;;;4993936;28;20418;-89
2022/10/23 03:02:55;;;;;;;;;;;10.00;99.90;;;;;;4983436;28;20472;-88
2022/10/23 03:05:23;;;;;;;;;;;10.00;99.90;;;;;;4978809;28;19949;-89
2022/10/23 03:07:51;;;;;;;;;;;10.00;99.90;;;;;;4977946;28;19933;-89
2022/10/23 03:10:17;;;;;;;;;;;9.00;99.90;;;;;;4979455;28;19929;-88
2022/10/23 03:12:42;;;;;;;;;;;10.10;99.90;;;;;;4995611;28;19972;-89
2022/10/23 03:15:10;;;;;;;;;;;10.10;99.90;;;;;;4979186;28;20311;-89
2022/10/23 03:17:36;;;;;;;;;;;10.10;99.90;;;;;;4994981;28;19996;-89
2022/10/23 03:20:01;;;;;;;;;;;10.00;99.90;;;;;;4976189;28;19986;-89
2022/10/23 03:22:27;;;;;;;;;;;10.20;99.90;;;;;;4963104;28;19980;-88
2022/10/23 03:24:55;;;;;;;;;;;10.00;99.90;;;;;;4979328;28;19925;-89
2022/10/23 03:27:20;;;;;;;;;;;10.00;99.90;;;;;;4985416;28;19992;-89
2022/10/23 03:29:46;;;;;;;;;;;10.00;99.90;;;;;;4962781;28;19933;-89
2022/10/23 03:32:11;;;;;;;;;;;9.90;99.90;;;;;;4977638;28;20350;-89
2022/10/23 03:34:37;;;;;;;;;;;9.90;99.90;;;;;;4977621;28;19934;-89
2022/10/23 03:37:03;;;;;;;;;;;10.00;99.90;;;;;;4978665;28;19965;-89
2022/10/23 03:39:28;;;;;;;;;;;7.90;99.90;;;;;;4975355;28;19926;-89
2022/10/23 03:41:54;;;;;;;;;;;10.00;99.90;;;;;;4977715;28;19925;-89
2022/10/23 03:44:19;;;;;;;;;;;10.00;99.90;;;;;;4962643;28;20204;-88
2022/10/23 03:46:45;;;;;;;;;;;10.00;99.90;;;;;;4993958;28;19930;-88
2022/10/23 03:49:11;;;;;;;;;;;9.90;99.90;;;;;;4977662;28;19930;-90
2022/10/23 03:51:40;;;;;;;;;;;9.90;99.90;;;;;;4961908;28;19926;-89
2022/10/23 03:54:06;;;;;;;;;;;9.90;99.90;;;;;;4994645;28;20349;-89
2022/10/23 03:56:32;;;;;;;;;;;9.90;99.90;;;;;;4977312;28;20007;-89
2022/10/23 03:58:57;;;;;;;;;;;9.60;99.90;;;;;;4978137;28;20027;-90
2022/10/23 04:01:23;;;;;;;;;;;9.90;99.90;;;;;;4961693;28;19937;-89
2022/10/23 04:03:49;;;;;;;;;;;9.80;99.90;;;;;;4977657;28;19933;-90
2022/10/23 04:06:14;;;;;;;;;;;9.70;99.90;;;;;;4994438;28;20016;-89
2022/10/23 04:08:41;;;;;;;;;;;10.40;99.90;;;;;;4978714;28;20023;-89
2022/10/23 04:11:07;;;;;;;;;;;9.90;99.90;;;;;;4990241;28;20473;-89
2022/10/23 04:13:33;;;;;;;;;;;9.80;99.90;;;;;;4978116;28;19966;-88
2022/10/23 04:15:58;;;;;;;;;;;9.90;99.90;;;;;;4975490;28;19933;-89
2022/10/23 04:18:26;;;;;;;;;;;9.70;99.90;;;;;;4978054;28;19926;-88
2022/10/23 04:21:02;;;;;;;;;;;;;;;;;;;;;
2022/10/23 04:23:28;;;;;;;;;;;9.60;99.90;;;;;;4993961;28;19933;-88
2022/10/23 04:25:57;;;;;;;;;;;10.00;99.90;;;;;;4988470;28;19934;-89
2022/10/23 04:28:23;;;;;;;;;;;9.50;99.90;;;;;;4974511;28;19926;-88
2022/10/23 04:30:48;;;;;;;;;;;9.50;99.90;;;;;;4973725;28;20460;-90
2022/10/23 04:33:14;;;;;;;;;;;9.80;99.90;;;;;;4990583;28;19987;-89
2022/10/23 04:35:42;;;;;;;;;;;9.50;99.90;;;;;;4977655;28;19927;-89
2022/10/23 04:38:08;;;;;;;;;;;9.90;99.90;;;;;;4978094;28;19926;-88
2022/10/23 04:40:33;;;;;;;;;;;9.80;99.90;;;;;;4978045;28;20380;-88
2022/10/23 04:43:01;;;;;;;;;;;9.50;99.90;;;;;;4993720;28;19926;-90
2022/10/23 04:45:27;;;;;;;;;;;8.10;99.90;;;;;;4977736;28;20292;-88
2022/10/23 04:47:53;;;;;;;;;;;9.60;99.90;;;;;;4977223;28;20009;-89
2022/10/23 04:50:19;;;;;;;;;;;9.50;99.90;;;;;;4958211;28;19926;-88
2022/10/23 04:52:45;;;;;;;;;;;9.60;99.90;;;;;;4975068;28;19933;-88
2022/10/23 04:55:13;;;;;;;;;;;10.00;99.90;;;;;;4976902;28;19926;-89
2022/10/23 04:57:39;;;;;;;;;;;9.60;99.90;;;;;;4977546;28;20280;-90
2022/10/23 05:00:08;;;;;;;;;;;9.70;99.90;;;;;;4993063;28;19926;-89
2022/10/23 05:02:36;;;;;;;;;;;9.70;99.90;;;;;;4993441;28;19925;-89
2022/10/23 05:05:02;;;;;;;;;;;9.70;99.90;;;;;;4976926;28;19930;-89
2022/10/23 05:07:28;;;;;;;;;;;8.40;99.90;;;;;;4976741;28;20365;-89
2022/10/23 05:09:56;;;;;;;;;;;9.70;99.90;;;;;;4993335;28;19930;-89
2022/10/23 05:12:24;;;;;;;;;;;9.70;99.90;;;;;;4977352;28;20025;-89
2022/10/23 05:14:50;;;;;;;;;;;9.90;99.90;;;;;;5001466;28;19933;-89
2022/10/23 05:17:18;;;;;;;;;;;9.80;99.90;;;;;;4986729;28;19929;-89
2022/10/23 05:19:49;;;;;;;;;;;9.80;99.90;;;;;;4989298;28;19922;-90
2022/10/23 05:22:15;;;;;;;;;;;10.00;99.90;;;;;;4990234;28;19938;-88
2022/10/23 05:24:41;;;;;;;;;;;9.80;99.90;;;;;;4979877;28;20355;-89
2022/10/23 05:27:07;;;;;;;;;;;9.90;99.90;;;;;;4976639;28;19933;-90
2022/10/23 05:29:35;;;;;;;;;;;9.80;99.90;;;;;;4975571;28;19925;-89
2022/10/23 05:32:08;;;;;;;;;;;9.80;99.90;;;;;;4965807;28;20363;-89
2022/10/23 05:34:35;;;;;;;;;;;9.80;99.90;;;;;;4976640;28;20285;-89
2022/10/23 05:37:05;;;;;;;;;;;9.90;99.90;;;;;;4991805;28;20028;-89
2022/10/23 05:39:36;;;;;;;;;;;9.90;99.90;;;;;;4976153;28;19965;-89
2022/10/23 05:42:02;;;;;;;;;;;9.80;99.90;;;;;;4992329;28;20409;-89
2022/10/23 05:44:27;;;;;;;;;;;10.70;99.90;;;;;;4976669;28;19965;-89
2022/10/23 05:46:53;;;;;;;;;;;9.70;99.90;;;;;;4973474;28;19925;-90
2022/10/23 05:49:19;;;;;;;;;;;9.90;99.90;;;;;;4975062;28;19980;-89
2022/10/23 05:51:47;;;;;;;;;;;9.60;99.90;;;;;;4975656;28;20005;-89
2022/10/23 05:54:13;;;;;;;;;;;9.70;99.90;;;;;;4976217;28;19968;-89
2022/10/23 05:56:41;;;;;;;;;;;9.60;99.90;;;;;;4990319;28;20362;-89
2022/10/23 05:59:08;;;;;;;;;;;9.80;99.90;;;;;;4989854;28;20410;-89
2022/10/23 06:01:35;;;;;;;;;;;9.90;99.90;;;;;;4973932;28;19933;-89
2022/10/23 06:04:06;;;;;;;;;;;9.70;99.90;;;;;;4990781;28;20745;-89
2022/10/23 06:06:32;;;;;;;;;;;9.40;99.90;;;;;;4976121;28;20294;-89
2022/10/23 06:09:00;;;;;;;;;;;9.60;99.90;;;;;;4973885;28;19936;-89
2022/10/23 06:11:26;;;;;;;;;;;9.90;99.90;;;;;;4974622;28;19930;-89
2022/10/23 06:13:51;;;;;;;;;;;9.80;99.90;;;;;;4975591;28;19965;-89
2022/10/23 06:16:18;;;;;;;;;;;9.80;99.90;;;;;;4988436;28;19933;-89
2022/10/23 06:18:47;;;;;;;;;;;9.70;99.90;;;;;;4976095;28;19926;-90
2022/10/23 06:21:13;;;;;;;;;;;9.50;99.90;;;;;;4979969;28;20282;-89
2022/10/23 06:23:40;;;;;;;;;;;7.80;99.90;;;;;;4985207;28;19926;-89
2022/10/23 06:26:07;;;;;;;;;;;9.60;99.90;;;;;;4980675;28;20345;-88
2022/10/23 06:28:35;;;;;;;;;;;9.70;99.90;;;;;;4995821;28;19965;-89
2022/10/23 06:31:08;;;;;;;;;;;9.60;99.90;;;;;;5015613;28;19914;-90
2022/10/23 06:33:34;;;;;;;;;;;9.60;99.90;;;;;;5003868;28;19914;-88
2022/10/23 06:36:02;;;;;;;;;;;9.60;99.90;;;;;;5020051;28;19994;-90
2022/10/23 06:38:28;;;;;;;;;;;9.60;99.90;;;;;;4985081;28;19937;-89
2022/10/23 06:40:54;;;;;;;;;;;9.60;99.90;;;;;;5002087;28;19981;-91
2022/10/23 06:43:22;;;;;;;;;;;9.70;99.90;;;;;;4997894;28;19914;-90
2022/10/23 06:45:48;;;;;;;;;;;9.70;99.90;;;;;;4984012;28;19934;-88
2022/10/23 06:48:17;;;;;;;;;;;9.80;99.90;;;;;;4983320;28;19984;-88
2022/10/23 06:50:42;;;;;;;;;;;9.80;99.90;;;;;;4983382;28;20285;-88
2022/10/23 06:53:08;;;;;;;;;;;9.80;99.90;;;;;;4979908;28;19972;-89
2022/10/23 06:55:34;;;;;;;;;;;9.80;99.90;;;;;;4993415;28;19975;-90
2022/10/23 06:58:02;;;;;;;;;;;9.70;99.90;;;;;;5000888;28;19926;-88
2022/10/23 07:00:27;;;;;;;;;;;9.80;99.90;;;;;;4976133;28;19926;-87
2022/10/23 07:02:55;;;;;;;;;;;9.80;99.90;;;;;;4977010;28;19933;-91
2022/10/23 07:05:21;;;;;;;;;;;9.90;99.90;;;;;;4979180;28;20004;-88
2022/10/23 07:07:47;;;;;;;;;;;9.90;99.90;;;;;;4965654;28;20361;-90
2022/10/23 07:10:12;;;;;;;;;;;9.90;99.90;;;;;;4963205;28;19926;-90
2022/10/23 07:12:43;;;;;;;;;;;9.80;99.90;;;;;;4979412;28;19957;-90
2022/10/23 07:15:09;;;;;;;;;;;10.20;99.90;;;;;;4979564;28;20321;-89
2022/10/23 07:17:37;;;;;;;;;;;9.90;99.90;;;;;;4977595;28;20017;-89
2022/10/23 07:20:03;;;;;;;;;;;10.10;99.90;;;;;;4979827;28;20366;-91
2022/10/23 07:22:29;;;;;;;;;;;10.00;99.90;;;;;;4963521;28;20008;-91
2022/10/23 07:24:55;;;;;;;;;;;9.50;99.90;;;;;;4996215;28;20096;-92
2022/10/23 07:27:20;;;;;;;;;;;9.60;99.90;;;;;;4996417;28;20374;-90
2022/10/23 07:29:49;;;;;;;;;;;10.10;99.90;;;;;;4979473;28;20481;-90
2022/10/23 07:32:14;;;;;;;;;;;10.40;99.90;;;;;;4977698;28;19926;-90
2022/10/23 07:34:40;;;;;;;;;;;10.20;99.90;;;;;;4979123;28;19932;-88
2022/10/23 07:37:06;;;;;;;;;;;10.30;99.90;;;;;;4979136;28;19980;-88
2022/10/23 07:39:31;;;;;;;;;;;10.20;99.90;;;;;;4979184;28;19969;-90
2022/10/23 07:41:57;;;;;;;;;;;10.40;99.90;;;;;;4969114;28;20457;-89
2022/10/23 07:44:25;;;;;;;;;;;10.40;99.90;;;;;;4966368;28;20385;-89
2022/10/23 07:46:51;;;;;;;;;;;10.70;99.90;;;;;;4978267;28;19933;-91
2022/10/23 07:49:17;;;;;;;;;;;10.30;99.90;;;;;;4979489;28;20347;-89
2022/10/23 07:51:45;;;;;;;;;;;10.40;99.90;;;;;;4995231;28;19933;-90
2022/10/23 07:54:11;;;;;;;;;;;10.70;99.90;;;;;;4995329;28;19969;-91
2022/10/23 07:56:37;;;;;;;;;;;9.50;99.90;;;;;;4978430;28;20405;-89
2022/10/23 07:59:06;;;;;;;;;;;10.60;99.90;;;;;;4989922;28;19934;-92
2022/10/23 08:01:41;;;;;;;;;;;10.60;99.90;;;;;;4973705;28;19921;-90
2022/10/23 08:04:08;;;;;;;;;;;10.60;99.90;;;;;;4975102;28;20443;-91
2022/10/23 08:06:45;;;;;;;;;;;10.80;99.90;;;;;;4993787;28;20217;-91
2022/10/23 08:09:11;;;;;;;;;;;10.70;99.90;;;;;;4974309;28;19928;-91
2022/10/23 08:11:41;;;;;;;;;;;10.70;99.90;;;;;;4997475;28;19922;-90
2022/10/23 08:14:07;;;;;;;;;;;10.70;99.90;;;;;;4978288;28;19932;-91
2022/10/23 08:16:34;;;;;;;;;;;10.70;99.90;;;;;;4973965;28;20028;-89
2022/10/23 08:19:00;;;;;;;;;;;10.90;99.90;;;;;;4971938;28;20350;-91
2022/10/23 08:21:26;;;;;;;;;;;10.80;99.90;;;;;;4974091;28;19968;-90
2022/10/23 08:23:53;;;;;;;;;;;12.40;99.90;;;;;;4972308;28;19921;-92
2022/10/23 08:32:34;;;;;;;;;;;11.10;99.90;;;;;;4984959;28;19930;-91
2022/10/23 08:35:12;;;;;;;;;;;10.50;99.90;;;;;;4994860;28;19937;-90
2022/10/23 08:37:43;;;;;;;;;;;11.30;99.90;;;;;;4974267;28;19930;-88
2022/10/23 08:40:19;;;;;;;;;;;10.30;99.90;;;;;;4976580;28;19925;-90
2022/10/23 08:43:17;;;;;;;;;;;13.20;99.90;;;;;;4972798;28;19941;-90
2022/10/23 08:45:57;;;;;;;;;;;11.50;99.90;;;;;;4974337;28;20313;-91
2022/10/23 08:48:28;;;;;;;;;;;11.50;99.90;;;;;;4975747;28;19979;-89
2022/10/23 08:51:07;;;;;;;;;;;11.60;99.90;;;;;;4973278;28;19972;-88
2022/10/23 08:53:36;;;;;;;;;;;11.60;99.90;;;;;;4975734;28;19933;-90
2022/10/23 08:56:21;;;;;;;;;;;;;;;;;;;;;
2022/10/23 08:58:54;;;;;;;;;;;11.80;99.90;;;;;;4992684;28;19929;-90
2022/10/23 09:01:30;;;;;;;;;;;;;;;;;;;;;
2022/10/23 09:04:04;;;;;;;;;;;11.90;99.90;;;;;;4991849;28;19930;-88
2022/10/23 09:06:30;;;;;;;;;;;11.10;99.90;;;;;;4992110;28;19926;-88
2022/10/23 09:09:07;;;;;;;;;;;11.90;99.90;;;;;;4992339;28;20338;-89
2022/10/23 09:11:46;;;;;;;;;;;12.10;99.90;;;;;;4975843;28;19926;-87
2022/10/23 09:14:25;;;;;;;;;;;12.40;99.90;;;;;;4978179;28;19929;-88
2022/10/23 09:17:09;;;;;;;;;;;12.10;99.90;;;;;;4985965;28;19926;-89
2022/10/23 09:22:35;;;;;;;;;;;14.30;99.90;;;;;;4983964;28;19952;-88
2022/10/23 09:25:13;;;;;;;;;;;12.40;99.90;;;;;;4978394;28;20332;-89
2022/10/23 09:27:53;;;;;;;;;;;10.70;99.90;;;;;;4962371;28;19998;-89
2022/10/23 09:30:31;;;;;;;;;;;13.40;99.90;;;;;;4977155;28;19926;-89
2022/10/23 09:33:05;;;;;;;;;;;12.70;99.90;;;;;;4976656;28;20016;-88
2022/10/23 09:35:33;;;;;;;;;;;12.60;99.90;;;;;;4978663;28;20382;-87
2022/10/23 09:37:59;;;;;;;;;;;12.70;99.90;;;;;;4976551;28;19952;-88
2022/10/23 09:40:51;;;;;;;;;;;13.00;99.90;;;;;;4961508;28;19941;-89
2022/10/23 09:43:26;;;;;;;;;;;12.80;99.90;;;;;;4971769;28;20402;-89
2022/10/23 09:46:10;;;;;;;;;;;13.00;99.90;;;;;;4969311;28;20286;-90
2022/10/23 09:48:41;;;;;;;;;;;11.60;99.90;;;;;;4990304;28;19930;-90
2022/10/23 09:51:27;;;;;;;;;;;13.20;99.90;;;;;;4965374;28;19937;-89
2022/10/23 09:53:57;;;;;;;;;;;13.20;99.90;;;;;;4980710;28;19953;-91
2022/10/23 09:56:29;;;;;;;;;;;13.10;99.90;;;;;;4991128;28;19965;-88
2022/10/23 09:58:59;;;;;;;;;;;13.30;99.90;;;;;;4968159;28;19930;-89
2022/10/23 10:01:34;;;;;;;;;;;13.30;99.90;;;;;;4973173;28;19932;-89
2022/10/23 10:04:01;;;;;;;;;;;13.50;99.90;;;;;;4975499;28;20000;-88
2022/10/23 10:06:32;;;;;;;;;;;13.30;99.90;;;;;;4975468;28;20072;-90
2022/10/23 10:09:01;;;;;;;;;;;13.20;99.90;;;;;;4992497;28;20025;-89
2022/10/23 10:11:43;;;;;;;;;;;15.10;99.90;;;;;;4975124;28;20382;-90
2022/10/23 10:14:17;;;;;;;;;;;13.70;99.90;;;;;;4966747;28;19926;-88
2022/10/23 10:17:11;;;;;;;;;;;;;;;;;;;;;
2022/10/23 10:20:05;;;;;;;;;;;;;;;;;;;;;
2022/10/23 10:22:59;;;;;;;;;;;13.90;99.90;;;;;;4988195;28;20260;-91
2022/10/23 10:25:51;;;;;;;;;;;13.90;99.90;;;;;;4975468;28;19930;-90
2022/10/23 10:31:49;;;;;;;;;;;14.80;99.90;;;;;;4982095;28;19989;-91
2022/10/23 10:34:38;;;;;;;;;;;14.00;99.90;;;;;;4969530;28;19926;-90
2022/10/23 10:37:26;;;;;;;;;;;14.30;99.90;;;;;;4975438;28;19926;-90
2022/10/23 10:39:58;;;;;;;;;;;14.30;99.90;;;;;;4964378;28;20374;-88
2022/10/23 10:42:40;;;;;;;;;;;14.40;99.90;;;;;;5006382;28;19983;-89
2022/10/23 10:45:42;;;;;;;;;;;13.80;99.90;;;;;;4987162;28;19930;-89
2022/10/23 10:48:30;;;;;;;;;;;14.60;99.90;;;;;;4986779;28;19925;-90
2022/10/23 10:51:01;;;;;;;;;;;14.60;99.90;;;;;;4998123;28;19977;-90
2022/10/23 10:53:41;;;;;;;;;;;14.50;99.90;;;;;;4998158;28;19926;-88
2022/10/23 10:56:10;;;;;;;;;;;13.70;99.90;;;;;;4999542;28;19925;-90
2022/10/23 10:58:41;;;;;;;;;;;14.60;99.90;;;;;;5015537;28;20002;-91
2022/10/23 11:01:40;;;;;;;;;;;;;;;;;;;;;
2022/10/23 11:04:18;;;;;;;;;;;13.20;99.90;;;;;;5015910;28;19936;-89
2022/10/23 11:06:50;;;;;;;;;;;14.70;99.90;;;;;;5007123;28;19913;-91
2022/10/23 11:09:29;;;;;;;;;;;15.60;99.90;;;;;;5003473;28;19914;-89
2022/10/23 11:12:15;;;;;;;;;;;15.10;99.90;;;;;;5002446;28;20005;-89
2022/10/23 11:15:01;;;;;;;;;;;14.90;99.90;;;;;;4994715;28;20007;-89
2022/10/23 11:17:37;;;;;;;;;;;14.90;99.90;;;;;;4977465;28;19937;-89
2022/10/23 11:23:38;;;;;;;;;;;15.20;99.90;;;;;;4987583;28;19920;-90
2022/10/23 11:26:23;;;;;;;;;;;15.00;99.90;;;;;;4988289;28;19933;-90
2022/10/23 11:29:02;;;;;;;;;;;15.00;99.90;;;;;;4978026;28;19950;-89
2022/10/23 11:31:35;;;;;;;;;;;15.50;99.90;;;;;;4997145;28;19925;-88
2022/10/23 11:34:15;;;;;;;;;;;14.10;99.90;;;;;;4973219;28;19926;-89
2022/10/23 11:36:57;;;;;;;;;;;;;;;;;;;;;
2022/10/23 11:39:38;;;;;;;;;;;15.10;99.90;;;;;;4994210;28;19926;-88
2022/10/23 11:42:04;;;;;;;;;;;15.20;99.90;;;;;;4963377;28;19968;-88
2022/10/23 11:44:41;;;;;;;;;;;14.20;99.90;;;;;;4977317;28;19925;-88
2022/10/23 11:47:46;;;;;;;;;;;15.20;99.90;;;;;;5000286;28;19976;-89
2022/10/23 11:50:12;;;;;;;;;;;14.90;99.90;;;;;;4984700;28;20409;-88
2022/10/23 11:56:13;;;;;;;;;;;15.10;99.90;;;;;;4990803;28;19983;-91
2022/10/23 11:59:09;;;;;;;;;;;15.20;99.90;;;;;;4988071;28;20274;-90
2022/10/23 12:01:41;;;;;;;;;;;15.20;99.90;;;;;;4959857;28;19941;-93
2022/10/23 12:04:18;;;;;;;;;;;15.00;99.90;;;;;;4976729;28;20294;-93
2022/10/23 12:06:59;;;;;;;;;;;15.00;99.90;;;;;;4977268;28;19937;-94
2022/10/23 12:09:43;;;;;;;;;;;16.10;99.90;;;;;;4994607;28;20039;-92
2022/10/23 12:12:39;;;;;;;;;;;15.10;99.90;;;;;;4978295;28;19925;-94
2022/10/23 12:23:01;;;;;;;;;;;15.20;99.90;;;;;;4972839;28;19929;-91
2022/10/23 12:25:47;;;;;;;;;;;15.90;99.90;;;;;;4957672;28;20067;-92
2022/10/23 12:28:37;;;;;;;;;;;15.70;99.90;;;;;;4973251;28;19952;-89
2022/10/23 12:37:57;;;;;;;;;;;15.40;99.90;;;;;;4965617;28;19932;-91
2022/10/23 12:40:42;;;;;;;;;;;15.40;99.90;;;;;;4979226;28;19926;-93
2022/10/23 12:43:57;;;;;;;;;;;15.10;99.90;;;;;;5001306;28;19921;-90
2022/10/23 12:46:47;;;;;;;;;;;15.40;99.90;;;;;;4982592;28;20297;-92
2022/10/23 12:49:33;;;;;;;;;;;15.30;99.90;;;;;;5003964;28;19933;-90
2022/10/23 12:52:26;;;;;;;;;;;15.50;99.90;;;;;;4990060;28;20019;-90
2022/10/23 12:55:23;;;;;;;;;;;15.40;99.90;;;;;;4985524;28;19943;-90
2022/10/23 12:58:12;;;;;;;;;;;15.60;99.90;;;;;;4972282;28;20415;-89
2022/10/23 13:00:58;;;;;;;;;;;15.40;99.90;;;;;;4979355;28;19926;-92
2022/10/23 13:03:36;;;;;;;;;;;15.50;99.90;;;;;;4981287;28;20036;-90
2022/10/23 13:06:03;;;;;;;;;;;15.60;99.90;;;;;;4976284;28;19933;-91
2022/10/23 13:08:47;;;;;;;;;;;15.10;99.90;;;;;;4978129;28;19934;-91
2022/10/23 13:11:20;;;;;;;;;;;15.60;99.90;;;;;;4979650;28;19976;-88
2022/10/23 13:13:47;;;;;;;;;;;15.60;99.90;;;;;;4986155;28;20293;-90
2022/10/23 13:16:21;;;;;;;;;;;15.60;99.90;;;;;;4981395;28;19989;-91
2022/10/23 13:18:52;;;;;;;;;;;15.70;99.90;;;;;;4988520;28;19930;-90
2022/10/23 13:21:36;;;;;;;;;;;15.70;99.90;;;;;;4980621;28;20021;-89
2022/10/23 13:24:02;;;;;;;;;;;15.50;99.90;;;;;;4987749;28;19929;-90
2022/10/23 13:26:33;;;;;;;;;;;15.50;99.90;;;;;;4982294;28;20392;-90
2022/10/23 13:29:03;;;;;;;;;;;15.60;99.90;;;;;;4978067;28;19933;-89
2022/10/23 13:31:41;;;;;;;;;;;15.60;99.90;;;;;;4975537;28;19962;-92
2022/10/23 13:34:15;;;;;;;;;;;15.50;99.90;;;;;;4976637;28;20259;-89
2022/10/23 13:36:51;;;;;;;;;;;15.60;99.90;;;;;;4977675;28;19926;-89
2022/10/23 13:39:29;;;;;;;;;;;15.80;99.90;;;;;;4976888;28;20016;-90
2022/10/23 13:41:55;;;;;;;;;;;15.60;99.90;;;;;;4978386;28;19933;-91
2022/10/23 13:44:31;;;;;;;;;;;15.80;99.90;;;;;;4977778;28;19926;-91
2022/10/23 13:46:59;;;;;;;;;;;14.90;99.90;;;;;;4972504;28;19993;-90
2022/10/23 13:49:41;;;;;;;;;;;16.70;99.90;;;;;;4986115;28;19932;-90
2022/10/23 13:52:10;;;;;;;;;;;15.70;99.90;;;;;;4988836;28;20312;-90
2022/10/23 13:54:36;;;;;;;;;;;15.60;99.90;;;;;;4996444;28;19934;-90
2022/10/23 13:57:02;;;;;;;;;;;15.70;99.90;;;;;;4978379;28;19933;-90
2022/10/23 13:59:28;;;;;;;;;;;15.40;99.90;;;;;;4986604;28;19926;-92
2022/10/23 14:01:56;;;;;;;;;;;15.60;99.90;;;;;;5008178;28;19969;-90
2022/10/23 14:04:22;;;;;;;;;;;15.60;99.90;;;;;;4976679;28;20267;-91
2022/10/23 14:06:48;;;;;;;;;;;15.50;99.90;;;;;;4967424;28;20289;-90
2022/10/23 14:09:18;;;;;;;;;;;15.60;99.90;;;;;;4992492;28;19933;-89
2022/10/23 14:11:44;;;;;;;;;;;14.20;99.90;;;;;;4996921;28;19926;-90
2022/10/23 14:14:15;;;;;;;;;;;15.50;99.90;;;;;;4973282;28;19926;-90
2022/10/23 14:16:41;;;;;;;;;;;15.50;99.90;;;;;;4973984;28;19977;-90
2022/10/23 14:19:07;;;;;;;;;;;15.50;99.90;;;;;;4992444;28;19929;-90
2022/10/23 14:21:38;;;;;;;;;;;15.10;99.90;;;;;;4975859;28;19926;-88
2022/10/23 14:24:04;;;;;;;;;;;15.50;99.90;;;;;;4995121;28;20008;-93
2022/10/23 14:26:37;;;;;;;;;;;14.30;99.90;;;;;;4980403;28;19972;-92
2022/10/23 14:29:13;;;;;;;;;;;15.50;99.90;;;;;;4995188;28;19926;-91
2022/10/23 14:31:41;;;;;;;;;;;15.40;99.90;;;;;;4976149;28;19926;-89
2022/10/23 14:34:07;;;;;;;;;;;15.50;99.90;;;;;;4969908;28;19965;-89
2022/10/23 14:36:44;;;;;;;;;;;15.50;99.90;;;;;;4990066;28;19925;-92
2022/10/23 14:39:15;;;;;;;;;;;15.40;99.90;;;;;;4970273;28;20018;-90
2022/10/23 14:41:41;;;;;;;;;;;15.00;99.90;;;;;;4979639;28;19933;-92
2022/10/23 14:44:07;;;;;;;;;;;15.40;99.90;;;;;;4996624;28;20354;-89
2022/10/23 14:46:37;;;;;;;;;;;15.60;99.90;;;;;;4981340;28;19999;-89
2022/10/23 14:49:05;;;;;;;;;;;14.60;99.90;;;;;;4969111;28;19925;-90
2022/10/23 14:51:30;;;;;;;;;;;14.50;99.90;;;;;;4981319;28;19925;-88
2022/10/23 14:54:07;;;;;;;;;;;14.10;99.90;;;;;;4982670;28;19929;-89
2022/10/23 14:56:36;;;;;;;;;;;15.70;99.90;;;;;;4959173;28;20354;-88
2022/10/23 14:59:09;;;;;;;;;;;15.50;99.90;;;;;;4982964;28;19933;-89
2022/10/23 15:01:39;;;;;;;;;;;15.50;99.90;;;;;;4967042;28;19926;-90
2022/10/23 15:04:17;;;;;;;;;;;;;;;;;;;;;
2022/10/23 15:06:45;;;;;;;;;;;15.50;99.90;;;;;;4993125;28;19929;-88
2022/10/23 15:09:12;;;;;;;;;;;15.40;99.90;;;;;;4974334;28;19925;-88
2022/10/23 15:11:50;;;;;;;;;;;;;;;;;;;;;
2022/10/23 15:14:16;;;;;;;;;;;15.60;99.90;;;;;;5002962;28;19934;-88
2022/10/23 15:16:47;;;;;;;;;;;15.40;99.90;;;;;;5003157;28;19928;-92
2022/10/23 15:19:15;;;;;;;;;;;15.60;99.90;;;;;;5001145;28;20040;-87
2022/10/23 15:21:41;;;;;;;;;;;15.40;99.90;;;;;;5021481;28;19926;-89
2022/10/23 15:24:07;;;;;;;;;;;15.40;99.90;;;;;;5004464;28;19937;-91
2022/10/23 15:26:37;;;;;;;;;;;14.30;99.90;;;;;;4998511;28;19914;-91
2022/10/23 15:29:05;;;;;;;;;;;15.40;99.90;;;;;;5002848;28;19936;-88
2022/10/23 15:31:36;;;;;;;;;;;15.40;99.90;;;;;;4979341;28;19930;-90